DAAP

Illizi Takhamalt Airport

Illizi, Algeria
METAR DAAP 251900Z 24008KT CAVOK 34/14 Q1016
Observed Flight Rules
Sep-25 @ 19:00 UTC (18 minutes ago) Visual Flight Rules
Wind Visibility Clouds
240° at 8 knots 10,000+ meters
  • Clear skies
Temperatures Readings
Current 34°C / 93°F
Dewpoint 14°C / 57°F
Humidity 30%
Altimeter 30" Hg
Pressure 1016 hPa
Elevation 558
METAR DAAP 251900Z 24008KT CAVOK 34/14 Q1016
Observed Flight Rules
Sep-25 @ 19:00 UTC
(18 minutes ago)
VFR
Wind Visibility
240° at 8 knots 10,000+ meters
Clouds
  • Clear skies
Temperature Dewpoint
34°C / 93°F 14°C / 57°F
Humidity Altimeter Pressure
30% 30" Hg 1016 hPa